Time,TemperatureF,DewpointF,PressureIn,WindDirection,WindDirectionDegrees,WindSpeedMPH,WindSpeedGustMPH,Humidity,HourlyPrecipIn,Conditions,Clouds,dailyrainin,SoftwareType,DateUTC
2013-01-14 00:04:00,5.2,-1.0,30.53,ESE,117,0.0,0.0,75,0.00,,---,0.00,VWS V14.00,2013-01-14 07:04:00,
2013-01-14 00:12:00,5.1,-1.1,30.52,North,0,0.0,0.0,75,0.00,,---,0.00,VWS V14.00,2013-01-14 07:12:00,
2013-01-14 00:17:00,5.1,-1.1,30.52,ESE,117,0.0,0.0,75,0.00,,---,0.00,VWS V14.00,2013-01-14 07:17:00,
2013-01-14 00:22:00,5.1,-1.1,30.52,ESE,117,0.0,0.0,75,0.00,,---,0.00,VWS V14.00,2013-01-14 07:22:00,
2013-01-14 00:27:00,5.1,-0.8,30.52,ESE,117,0.0,0.0,76,0.00,,---,0.00,VWS V14.00,2013-01-14 07:27:00,
2013-01-14 00:32:00,5.1,-0.8,30.52,ESE,117,0.0,0.0,76,0.00,,---,0.00,VWS V14.00,2013-01-14 07:32:00,
2013-01-14 00:37:00,5.0,-0.9,30.52,ESE,117,0.0,0.0,76,0.00,,---,0.00,VWS V14.00,2013-01-14 07:37:00,
2013-01-14 00:42:00,4.9,-1.3,30.52,ESE,117,0.0,0.0,75,0.00,,---,0.00,VWS V14.00,2013-01-14 07:42:00,
2013-01-14 00:47:00,4.8,-1.4,30.52,ESE,117,0.0,0.0,75,0.00,,---,0.00,VWS V14.00,2013-01-14 07:47:00,
2013-01-14 00:52:00,4.7,-1.5,30.52,ESE,117,0.0,0.0,75,0.00,,---,0.00,VWS V14.00,2013-01-14 07:52:00,
2013-01-14 00:57:00,4.6,-1.6,30.52,ESE,117,0.0,0.0,75,0.00,,---,0.00,VWS V14.00,2013-01-14 07:57:00,
2013-01-14 01:02:00,4.5,-1.4,30.51,ESE,117,0.0,0.0,76,0.00,,---,0.00,VWS V14.00,2013-01-14 08:02:00,
2013-01-14 01:07:00,4.4,-1.5,30.53,ESE,117,0.0,0.0,76,0.00,,---,0.00,VWS V14.00,2013-01-14 08:07:00,
2013-01-14 01:12:00,4.3,-1.9,30.53,ESE,117,0.0,0.0,75,0.00,,---,0.00,VWS V14.00,2013-01-14 08:12:00,
2013-01-14 01:17:00,4.2,-2.0,30.52,ESE,117,0.0,0.0,75,0.00,,---,0.00,VWS V14.00,2013-01-14 08:17:00,
2013-01-14 01:22:00,4.1,-2.0,30.52,ESE,117,0.0,0.0,75,0.00,,---,0.00,VWS V14.00,2013-01-14 08:22:00,
2013-01-14 01:27:00,4.1,-1.8,30.52,ESE,117,0.0,0.0,76,0.00,,---,0.00,VWS V14.00,2013-01-14 08:27:00,
2013-01-14 01:32:00,4.0,-1.9,30.52,ESE,117,0.0,0.0,76,0.00,,---,0.00,VWS V14.00,2013-01-14 08:32:00,
2013-01-14 01:37:00,4.0,-1.9,30.53,ESE,117,0.0,0.0,76,0.00,,---,0.00,VWS V14.00,2013-01-14 08:37:00,
2013-01-14 01:42:00,4.0,-1.9,30.53,ESE,117,0.0,0.0,76,0.00,,---,0.00,VWS V14.00,2013-01-14 08:42:00,
2013-01-14 01:47:00,3.9,-2.0,30.53,ESE,117,0.0,0.0,76,0.00,,---,0.00,VWS V14.00,2013-01-14 08:47:00,
2013-01-14 01:52:00,3.7,-2.2,30.53,ESE,117,0.0,0.0,76,0.00,,---,0.00,VWS V14.00,2013-01-14 08:52:00,
2013-01-14 01:57:00,3.7,-2.2,30.53,ESE,117,0.0,0.0,76,0.00,,---,0.00,VWS V14.00,2013-01-14 08:57:00,
2013-01-14 02:02:00,3.6,-2.3,30.53,ESE,117,0.0,0.0,76,0.00,,---,0.00,VWS V14.00,2013-01-14 09:02:00,
2013-01-14 02:07:00,3.5,-2.3,30.53,ESE,117,0.0,0.0,76,0.00,,---,0.00,VWS V14.00,2013-01-14 09:07:00,
2013-01-14 02:12:00,3.4,-2.5,30.55,ESE,117,0.0,0.0,76,0.00,,---,0.00,VWS V14.00,2013-01-14 09:12:00,
2013-01-14 02:17:00,3.3,-2.5,30.55,ESE,117,0.0,0.0,76,0.00,,---,0.00,VWS V14.00,2013-01-14 09:17:00,
2013-01-14 02:22:00,3.2,-2.6,30.55,ESE,117,0.0,0.0,76,0.00,,---,0.00,VWS V14.00,2013-01-14 09:22:00,
2013-01-14 02:27:00,3.0,-2.8,30.55,ESE,117,0.0,0.0,76,0.00,,---,0.00,VWS V14.00,2013-01-14 09:27:00,
2013-01-14 02:32:00,2.8,-3.0,30.55,ESE,117,0.0,0.0,76,0.00,,---,0.00,VWS V14.00,2013-01-14 09:32:00,
2013-01-14 02:38:00,2.8,-3.0,30.55,ESE,117,0.0,0.0,76,0.00,,---,0.00,VWS V14.00,2013-01-14 09:38:00,
2013-01-14 02:44:00,2.8,-3.0,30.55,ESE,117,0.0,0.0,76,0.00,,---,0.00,VWS V14.00,2013-01-14 09:44:00,
2013-01-14 02:49:00,2.8,-3.0,30.55,ESE,117,0.0,0.0,76,0.00,,---,0.00,VWS V14.00,2013-01-14 09:49:00,
2013-01-14 02:54:00,2.8,-3.0,30.55,ESE,117,0.0,0.0,76,0.00,,---,0.00,VWS V14.00,2013-01-14 09:54:00,
2013-01-14 02:59:00,2.8,-3.0,30.55,ESE,117,0.0,0.0,76,0.00,,---,0.00,VWS V14.00,2013-01-14 09:59:00,
2013-01-14 03:04:00,2.7,-2.9,30.56,ESE,117,0.0,0.0,77,0.00,,---,0.00,VWS V14.00,2013-01-14 10:04:00,
2013-01-14 03:10:00,2.8,-2.8,30.56,ESE,117,0.0,0.0,77,0.00,,---,0.00,VWS V14.00,2013-01-14 10:10:00,
2013-01-14 03:15:00,2.8,-2.8,30.56,ESE,117,0.0,0.0,77,0.00,,---,0.00,VWS V14.00,2013-01-14 10:15:00,
2013-01-14 03:21:00,2.8,-2.8,30.56,ESE,117,0.0,0.0,77,0.00,,---,0.00,VWS V14.00,2013-01-14 10:21:00,
2013-01-14 03:26:00,2.7,-2.9,30.56,ESE,117,0.0,0.0,77,0.00,,---,0.00,VWS V14.00,2013-01-14 10:26:00,
2013-01-14 03:31:00,2.7,-2.9,30.56,ESE,117,0.0,0.0,77,0.00,,---,0.00,VWS V14.00,2013-01-14 10:31:00,
2013-01-14 03:36:00,2.8,-2.8,30.56,ESE,117,0.0,0.0,77,0.00,,---,0.00,VWS V14.00,2013-01-14 10:36:00,
2013-01-14 03:41:00,2.8,-2.8,30.56,ESE,117,0.0,0.0,77,0.00,,---,0.00,VWS V14.00,2013-01-14 10:41:00,
2013-01-14 03:46:00,2.8,-2.8,30.56,ESE,117,0.0,0.0,77,0.00,,---,0.00,VWS V14.00,2013-01-14 10:46:00,
2013-01-14 03:51:00,2.8,-2.8,30.56,ESE,117,0.0,0.0,77,0.00,,---,0.00,VWS V14.00,2013-01-14 10:51:00,
2013-01-14 03:57:00,2.8,-2.8,30.56,ESE,117,0.0,0.0,77,0.00,,---,0.00,VWS V14.00,2013-01-14 10:57:00,
2013-01-14 04:02:00,2.8,-2.8,30.56,ESE,117,0.0,0.0,77,0.00,,---,0.00,VWS V14.00,2013-01-14 11:02:00,
2013-01-14 04:07:00,2.9,-2.4,30.56,ESE,117,0.0,0.0,78,0.00,,---,0.00,VWS V14.00,2013-01-14 11:07:00,
2013-01-14 04:12:00,3.1,-2.2,30.56,ESE,117,0.0,0.0,78,0.00,,---,0.00,VWS V14.00,2013-01-14 11:12:00,
2013-01-14 04:17:00,3.1,-2.2,30.56,ESE,117,0.0,0.0,78,0.00,,---,0.00,VWS V14.00,2013-01-14 11:17:00,
2013-01-14 04:22:00,3.1,-2.2,30.56,ESE,117,0.0,0.0,78,0.00,,---,0.00,VWS V14.00,2013-01-14 11:22:00,
2013-01-14 04:27:00,3.2,-2.1,30.56,ESE,117,0.0,0.0,78,0.00,,---,0.00,VWS V14.00,2013-01-14 11:27:00,
2013-01-14 04:32:00,3.2,-2.1,30.56,ESE,117,0.0,1.0,78,0.00,,---,0.00,VWS V14.00,2013-01-14 11:32:00,
2013-01-14 04:37:00,3.3,-2.0,30.56,ESE,117,0.0,0.0,78,0.00,,---,0.00,VWS V14.00,2013-01-14 11:37:00,
2013-01-14 04:42:00,3.5,-1.8,30.56,ESE,117,0.0,0.0,78,0.00,,---,0.00,VWS V14.00,2013-01-14 11:42:00,
2013-01-14 04:47:00,3.7,-1.6,30.56,ESE,117,0.0,2.0,78,0.00,,---,0.00,VWS V14.00,2013-01-14 11:47:00,
2013-01-14 04:52:00,3.9,-1.1,30.56,ESE,117,0.0,0.0,79,0.00,,---,0.00,VWS V14.00,2013-01-14 11:52:00,
2013-01-14 04:57:00,4.0,-1.0,30.56,ESE,117,0.0,0.0,79,0.00,,---,0.00,VWS V14.00,2013-01-14 11:57:00,
2013-01-14 05:02:00,4.2,-0.9,30.56,ESE,117,0.0,0.0,79,0.00,,---,0.00,VWS V14.00,2013-01-14 12:02:00,
2013-01-14 05:07:00,4.3,-0.8,30.56,ESE,117,0.0,0.0,79,0.00,,---,0.00,VWS V14.00,2013-01-14 12:07:00,
2013-01-14 05:12:00,4.2,-0.9,30.56,ESE,117,0.0,0.0,79,0.00,,---,0.00,VWS V14.00,2013-01-14 12:12:00,
2013-01-14 05:17:00,4.3,-0.8,30.57,ESE,117,0.0,0.0,79,0.00,,---,0.00,VWS V14.00,2013-01-14 12:17:00,
2013-01-14 05:22:00,4.4,-0.7,30.57,ESE,117,0.0,0.0,79,0.00,,---,0.00,VWS V14.00,2013-01-14 12:22:00,
2013-01-14 05:27:00,4.5,-0.6,30.57,ESE,117,0.0,0.0,79,0.00,,---,0.00,VWS V14.00,2013-01-14 12:27:00,
2013-01-14 05:32:00,4.6,-0.5,30.57,ESE,117,0.0,0.0,79,0.00,,---,0.00,VWS V14.00,2013-01-14 12:32:00,
2013-01-14 05:37:00,4.7,-0.4,30.58,ESE,117,0.0,0.0,79,0.00,,---,0.00,VWS V14.00,2013-01-14 12:37:00,
2013-01-14 05:42:00,4.8,-0.3,30.58,ESE,117,0.0,0.0,79,0.00,,---,0.00,VWS V14.00,2013-01-14 12:42:00,
2013-01-14 05:47:00,5.0,0.2,30.58,ESE,117,0.0,0.0,80,0.00,,---,0.00,VWS V14.00,2013-01-14 12:47:00,
2013-01-14 05:52:00,5.1,0.0,30.58,ESE,117,0.0,0.0,79,0.00,,---,0.00,VWS V14.00,2013-01-14 12:52:00,
2013-01-14 05:57:00,5.3,0.5,30.58,ESE,117,0.0,0.0,80,0.00,,---,0.00,VWS V14.00,2013-01-14 12:57:00,
2013-01-14 06:02:00,5.3,0.2,30.59,ESE,117,0.0,0.0,79,0.00,,---,0.00,VWS V14.00,2013-01-14 13:02:00,
2013-01-14 06:07:00,5.3,0.2,30.59,ESE,117,0.0,0.0,79,0.00,,---,0.00,VWS V14.00,2013-01-14 13:07:00,
2013-01-14 06:12:00,5.3,0.5,30.59,ESE,117,0.0,1.0,80,0.00,,---,0.00,VWS V14.00,2013-01-14 13:12:00,
2013-01-14 06:17:00,5.3,0.2,30.59,ESE,117,0.0,1.0,79,0.00,,---,0.00,VWS V14.00,2013-01-14 13:17:00,
2013-01-14 06:22:00,5.3,0.5,30.59,ESE,117,0.0,0.0,80,0.00,,---,0.00,VWS V14.00,2013-01-14 13:22:00,
2013-01-14 06:27:00,5.2,0.4,30.59,ESE,117,0.0,0.0,80,0.00,,---,0.00,VWS V14.00,2013-01-14 13:27:00,
2013-01-14 06:32:00,5.2,0.4,30.59,ESE,117,0.0,0.0,80,0.00,,---,0.00,VWS V14.00,2013-01-14 13:32:00,
2013-01-14 06:37:00,5.2,0.4,30.60,ESE,117,0.0,0.0,80,0.00,,---,0.00,VWS V14.00,2013-01-14 13:37:00,
2013-01-14 06:42:00,5.1,0.3,30.60,ESE,117,0.0,0.0,80,0.00,,---,0.00,VWS V14.00,2013-01-14 13:42:00,
2013-01-14 06:47:00,5.1,0.3,30.60,ESE,117,0.0,0.0,80,0.00,,---,0.00,VWS V14.00,2013-01-14 13:47:00,
2013-01-14 06:52:00,5.1,0.3,30.60,ESE,117,0.0,0.0,80,0.00,,---,0.00,VWS V14.00,2013-01-14 13:52:00,
2013-01-14 06:57:00,5.0,0.2,30.60,ESE,117,0.0,1.0,80,0.00,,---,0.00,VWS V14.00,2013-01-14 13:57:00,
2013-01-14 07:02:00,5.0,0.2,30.60,ESE,117,0.0,0.0,80,0.00,,---,0.00,VWS V14.00,2013-01-14 14:02:00,
2013-01-14 07:07:00,5.0,2.5,30.61,ESE,117,0.0,0.0,89,0.00,,---,0.00,VWS V14.00,2013-01-14 14:07:00,
2013-01-14 07:13:00,5.0,0.2,30.61,ESE,117,0.0,0.0,80,0.00,,---,0.00,VWS V14.00,2013-01-14 14:13:00,
2013-01-14 07:18:00,5.0,2.5,30.61,ESE,117,0.0,0.0,89,0.00,,---,0.00,VWS V14.00,2013-01-14 14:18:00,
2013-01-14 07:23:00,5.0,2.5,30.61,ESE,117,0.0,0.0,89,0.00,,---,0.00,VWS V14.00,2013-01-14 14:23:00,
2013-01-14 07:28:00,5.0,0.2,30.61,ESE,117,0.0,0.0,80,0.00,,---,0.00,VWS V14.00,2013-01-14 14:28:00,
2013-01-14 07:33:00,5.0,0.2,30.61,ESE,117,0.0,0.0,80,0.00,,---,0.00,VWS V14.00,2013-01-14 14:33:00,
2013-01-14 07:38:00,5.0,0.2,30.62,ESE,117,0.0,0.0,80,0.00,,---,0.00,VWS V14.00,2013-01-14 14:38:00,
2013-01-14 07:43:00,5.1,0.3,30.62,ESE,117,0.0,0.0,80,0.00,,---,0.00,VWS V14.00,2013-01-14 14:43:00,
2013-01-14 07:48:00,5.2,0.4,30.62,ESE,117,0.0,0.0,80,0.00,,---,0.00,VWS V14.00,2013-01-14 14:48:00,
2013-01-14 07:53:00,5.3,0.5,30.62,ESE,117,0.0,0.0,80,0.00,,---,0.00,VWS V14.00,2013-01-14 14:53:00,
2013-01-14 07:58:00,5.4,0.6,30.62,ESE,117,0.0,0.0,80,0.00,,---,0.00,VWS V14.00,2013-01-14 14:58:00,
2013-01-14 08:03:00,5.5,0.7,30.62,ESE,117,0.0,0.0,80,0.00,,---,0.00,VWS V14.00,2013-01-14 15:03:00,
2013-01-14 08:08:00,5.7,0.9,30.62,ESE,117,1.0,1.0,80,0.00,,---,0.00,VWS V14.00,2013-01-14 15:08:00,
2013-01-14 08:13:00,6.0,1.4,30.62,ESE,117,0.0,0.0,81,0.00,,---,0.00,VWS V14.00,2013-01-14 15:13:00,
2013-01-14 08:18:00,6.2,1.6,30.62,ESE,117,0.0,2.0,81,0.00,,---,0.00,VWS V14.00,2013-01-14 15:18:00,
2013-01-14 08:23:00,6.4,1.8,30.62,ESE,117,0.0,1.0,81,0.00,,---,0.00,VWS V14.00,2013-01-14 15:23:00,
2013-01-14 08:28:00,6.7,2.1,30.60,ESE,117,0.0,1.0,81,0.00,,---,0.00,VWS V14.00,2013-01-14 15:28:00,
2013-01-14 08:34:00,7.1,2.5,30.61,ESE,117,0.0,0.0,81,0.00,,---,0.00,VWS V14.00,2013-01-14 15:34:00,
2013-01-14 08:39:00,7.6,3.0,30.61,ESE,117,0.0,0.0,81,0.00,,---,0.00,VWS V14.00,2013-01-14 15:39:00,
2013-01-14 08:44:00,7.7,3.1,30.61,ESE,117,0.0,0.0,81,0.00,,---,0.00,VWS V14.00,2013-01-14 15:44:00,
2013-01-14 08:49:00,7.8,3.2,30.61,ESE,117,0.0,0.0,81,0.00,,---,0.00,VWS V14.00,2013-01-14 15:49:00,
2013-01-14 08:54:00,8.0,3.4,30.61,ESE,117,0.0,0.0,81,0.00,,---,0.00,VWS V14.00,2013-01-14 15:54:00,
2013-01-14 08:59:00,8.4,3.8,30.61,ESE,117,0.0,2.0,81,0.00,,---,0.00,VWS V14.00,2013-01-14 15:59:00,
2013-01-14 09:04:00,8.5,3.6,30.61,ESE,117,2.0,2.0,80,0.00,,---,0.00,VWS V14.00,2013-01-14 16:04:00,
2013-01-14 09:09:00,8.4,3.5,30.61,ESE,117,0.0,0.0,80,0.00,,---,0.00,VWS V14.00,2013-01-14 16:09:00,
2013-01-14 09:14:00,8.3,3.4,30.61,ESE,117,0.0,0.0,80,0.00,,---,0.00,VWS V14.00,2013-01-14 16:14:00,
2013-01-14 09:19:00,8.3,3.4,30.61,ESE,117,1.0,2.0,80,0.00,,---,0.00,VWS V14.00,2013-01-14 16:19:00,
2013-01-14 09:24:00,8.2,3.0,30.60,ESE,117,0.0,1.0,79,0.00,,---,0.00,VWS V14.00,2013-01-14 16:24:00,
2013-01-14 09:29:00,8.2,3.0,30.60,ESE,117,0.0,0.0,79,0.00,,---,0.00,VWS V14.00,2013-01-14 16:29:00,
2013-01-14 09:34:00,8.2,3.0,30.60,ESE,117,0.0,1.0,79,0.00,,---,0.00,VWS V14.00,2013-01-14 16:34:00,
2013-01-14 09:39:00,8.1,2.7,30.60,ESE,117,0.0,1.0,78,0.00,,---,0.00,VWS V14.00,2013-01-14 16:39:00,
2013-01-14 09:44:00,8.1,3.0,30.60,ESE,117,0.0,2.0,79,0.00,,---,0.00,VWS V14.00,2013-01-14 16:44:00,
2013-01-14 09:49:00,8.3,3.1,30.60,ESE,117,1.0,1.0,79,0.00,,---,0.00,VWS V14.00,2013-01-14 16:49:00,
2013-01-14 09:54:00,8.2,2.8,30.60,ESE,117,0.0,0.0,78,0.00,,---,0.00,VWS V14.00,2013-01-14 16:54:00,
2013-01-14 09:59:00,8.5,3.1,30.60,ESE,117,0.0,2.0,78,0.00,,---,0.00,VWS V14.00,2013-01-14 16:59:00,
2013-01-14 10:04:00,9.2,4.0,30.61,ESE,117,0.0,0.0,79,0.00,,---,0.00,VWS V14.00,2013-01-14 17:04:00,
2013-01-14 10:10:00,9.6,4.1,30.60,ESE,117,0.0,0.0,78,0.00,,---,0.00,VWS V14.00,2013-01-14 17:10:00,
2013-01-14 10:15:00,9.9,4.4,30.59,ESE,117,1.0,1.0,78,0.00,,---,0.00,VWS V14.00,2013-01-14 17:15:00,
2013-01-14 10:20:00,9.7,4.0,30.60,ESE,117,0.0,0.0,77,0.00,,---,0.00,VWS V14.00,2013-01-14 17:20:00,
2013-01-14 10:25:00,9.3,3.3,30.61,ESE,117,0.0,0.0,76,0.00,,---,0.00,VWS V14.00,2013-01-14 17:25:00,
2013-01-14 10:30:00,9.1,3.1,30.60,ESE,117,0.0,2.0,76,0.00,,---,0.00,VWS V14.00,2013-01-14 17:30:00,
2013-01-14 10:35:00,9.5,3.5,30.60,ESE,117,0.0,0.0,76,0.00,,---,0.00,VWS V14.00,2013-01-14 17:35:00,
2013-01-14 10:40:00,9.9,3.9,30.59,ESE,117,0.0,0.0,76,0.00,,---,0.00,VWS V14.00,2013-01-14 17:40:00,
2013-01-14 10:45:00,10.1,4.1,30.59,ESE,117,0.0,0.0,76,0.00,,---,0.00,VWS V14.00,2013-01-14 17:45:00,
2013-01-14 10:50:00,10.4,4.1,30.58,ESE,117,0.0,0.0,75,0.00,,---,0.00,VWS V14.00,2013-01-14 17:50:00,
2013-01-14 10:55:00,11.1,4.7,30.58,ESE,117,0.0,0.0,75,0.00,,---,0.00,VWS V14.00,2013-01-14 17:55:00,
2013-01-14 11:00:00,10.8,4.2,30.57,ESE,117,0.0,0.0,74,0.00,,---,0.00,VWS V14.00,2013-01-14 18:00:00,
2013-01-14 11:05:00,10.8,4.2,30.57,ESE,117,0.0,0.0,74,0.00,,---,0.00,VWS V14.00,2013-01-14 18:05:00,
2013-01-14 11:10:00,10.7,3.8,30.56,ESE,117,0.0,1.0,73,0.00,,---,0.00,VWS V14.00,2013-01-14 18:10:00,
2013-01-14 11:15:00,10.5,3.9,30.56,ESE,117,0.0,2.0,74,0.00,,---,0.00,VWS V14.00,2013-01-14 18:15:00,
2013-01-14 11:20:00,10.3,3.4,30.57,ESE,116,0.0,1.0,73,0.00,,---,0.00,VWS V14.00,2013-01-14 18:20:00,
2013-01-14 11:26:00,10.3,3.4,30.56,ESE,116,0.0,0.0,73,0.00,,---,0.00,VWS V14.00,2013-01-14 18:26:00,
2013-01-14 11:31:00,11.0,4.3,30.54,ESE,116,1.0,2.0,74,0.00,,---,0.00,VWS V14.00,2013-01-14 18:31:00,
2013-01-14 11:36:00,10.8,4.2,30.54,ESE,115,1.0,1.0,74,0.00,,---,0.00,VWS V14.00,2013-01-14 18:36:00,
2013-01-14 11:41:00,11.2,4.5,30.54,ESE,116,0.0,0.0,74,0.00,,---,0.00,VWS V14.00,2013-01-14 18:41:00,
2013-01-14 11:47:00,11.3,4.9,30.53,ESE,116,0.0,0.0,75,0.00,,---,0.00,VWS V14.00,2013-01-14 18:47:00,
2013-01-14 11:52:00,12.0,5.0,30.53,ESE,115,0.0,1.0,73,0.00,,---,0.00,VWS V14.00,2013-01-14 18:52:00,
2013-01-14 11:58:00,12.6,5.6,30.51,ESE,115,0.0,1.0,73,0.00,,---,0.00,VWS V14.00,2013-01-14 18:58:00,
2013-01-14 12:03:00,12.1,4.2,30.52,NNW,345,5.0,5.0,70,0.00,,---,0.00,VWS V14.00,2013-01-14 19:03:00,
2013-01-14 12:09:00,11.7,4.1,30.52,NNW,344,0.0,5.0,71,0.00,,---,0.00,VWS V14.00,2013-01-14 19:09:00,
2013-01-14 12:14:00,11.2,3.3,30.51,NNW,344,0.0,0.0,70,0.00,,---,0.00,VWS V14.00,2013-01-14 19:14:00,
2013-01-14 12:20:00,10.8,3.0,30.51,NNW,344,0.0,1.0,70,0.00,,---,0.00,VWS V14.00,2013-01-14 19:20:00,
2013-01-14 12:25:00,11.1,3.5,30.51,NNW,344,1.0,1.0,71,0.00,,---,0.00,VWS V14.00,2013-01-14 19:25:00,
2013-01-14 12:30:00,11.6,3.7,30.50,NNE,13,1.0,4.0,70,0.00,,---,0.00,VWS V14.00,2013-01-14 19:30:00,
2013-01-14 12:35:00,11.5,3.3,30.50,NE,38,1.0,1.0,69,0.00,,---,0.00,VWS V14.00,2013-01-14 19:35:00,
2013-01-14 12:40:00,13.1,4.8,30.48,NNE,32,2.0,2.0,69,0.00,,---,0.00,VWS V14.00,2013-01-14 19:40:00,
2013-01-14 12:46:00,12.8,3.9,30.48,NNE,32,0.0,0.0,67,0.00,,---,0.00,VWS V14.00,2013-01-14 19:46:00,
2013-01-14 12:51:00,13.0,3.8,30.48,NNE,32,1.0,2.0,66,0.00,,---,0.00,VWS V14.00,2013-01-14 19:51:00,
2013-01-14 12:56:00,13.0,4.1,30.48,NNE,30,3.0,3.0,67,0.00,,---,0.00,VWS V14.00,2013-01-14 19:56:00,
2013-01-14 13:01:00,13.2,4.6,30.49,NNE,31,1.0,1.0,68,0.00,,---,0.00,VWS V14.00,2013-01-14 20:01:00,
2013-01-14 13:07:00,13.2,4.6,30.49,NNE,30,1.0,1.0,68,0.00,,---,0.00,VWS V14.00,2013-01-14 20:07:00,
2013-01-14 13:12:00,12.6,3.4,30.49,NNE,30,2.0,2.0,66,0.00,,---,0.00,VWS V14.00,2013-01-14 20:12:00,
2013-01-14 13:17:00,12.6,3.4,30.49,NNE,30,0.0,3.0,66,0.00,,---,0.00,VWS V14.00,2013-01-14 20:17:00,
2013-01-14 13:22:00,13.1,3.6,30.49,NNE,31,5.0,5.0,65,0.00,,---,0.00,VWS V14.00,2013-01-14 20:22:00,
2013-01-14 13:27:00,12.8,3.3,30.49,NNE,32,0.0,2.0,65,0.00,,---,0.00,VWS V14.00,2013-01-14 20:27:00,
2013-01-14 13:32:00,14.8,5.5,30.47,NNE,21,2.0,6.0,66,0.00,,---,0.00,VWS V14.00,2013-01-14 20:32:00,
2013-01-14 13:37:00,14.8,4.8,30.48,North,355,3.0,5.0,64,0.00,,---,0.00,VWS V14.00,2013-01-14 20:37:00,
2013-01-14 13:42:00,14.1,4.2,30.48,NNW,345,1.0,3.0,64,0.00,,---,0.00,VWS V14.00,2013-01-14 20:42:00,
2013-01-14 13:48:00,12.8,2.6,30.49,North,360,1.0,2.0,63,0.00,,---,0.00,VWS V14.00,2013-01-14 20:48:00,
2013-01-14 13:53:00,13.9,4.3,30.49,North,360,0.0,0.0,65,0.00,,---,0.00,VWS V14.00,2013-01-14 20:53:00,
2013-01-14 13:58:00,14.9,4.6,30.48,North,5,2.0,2.0,63,0.00,,---,0.00,VWS V14.00,2013-01-14 20:58:00,
2013-01-14 14:03:00,15.2,4.9,30.49,NE,48,1.0,3.0,63,0.00,,---,0.00,VWS V14.00,2013-01-14 21:03:00,
2013-01-14 14:08:00,15.2,4.5,30.49,NNW,336,0.0,5.0,62,0.00,,---,0.00,VWS V14.00,2013-01-14 21:08:00,
2013-01-14 14:13:00,14.1,3.5,30.50,NNW,341,1.0,5.0,62,0.00,,---,0.00,VWS V14.00,2013-01-14 21:13:00,
2013-01-14 14:18:00,13.2,3.0,30.50,North,355,0.0,3.0,63,0.00,,---,0.00,VWS V14.00,2013-01-14 21:18:00,
2013-01-14 14:23:00,13.5,3.6,30.51,NE,36,0.0,4.0,64,0.00,,---,0.00,VWS V14.00,2013-01-14 21:23:00,
2013-01-14 14:28:00,14.4,4.5,30.51,NNW,342,2.0,6.0,64,0.00,,---,0.00,VWS V14.00,2013-01-14 21:28:00,
2013-01-14 14:33:00,14.7,4.1,30.49,North,11,0.0,1.0,62,0.00,,---,0.00,VWS V14.00,2013-01-14 21:33:00,
2013-01-14 14:38:00,14.1,3.5,30.51,NNE,15,1.0,3.0,62,0.00,,---,0.00,VWS V14.00,2013-01-14 21:38:00,
2013-01-14 14:43:00,15.1,4.8,30.50,NNE,13,0.0,2.0,63,0.00,,---,0.00,VWS V14.00,2013-01-14 21:43:00,
2013-01-14 14:48:00,14.6,4.0,30.50,NE,36,1.0,1.0,62,0.00,,---,0.00,VWS V14.00,2013-01-14 21:48:00,
2013-01-14 14:54:00,15.2,3.8,30.50,NE,36,0.0,0.0,60,0.00,,---,0.00,VWS V14.00,2013-01-14 21:54:00,
2013-01-14 14:59:00,14.7,3.7,30.50,NE,35,0.0,1.0,61,0.00,,---,0.00,VWS V14.00,2013-01-14 21:59:00,
2013-01-14 15:04:00,14.6,4.0,30.50,NNE,16,3.0,5.0,62,0.00,,---,0.00,VWS V14.00,2013-01-14 22:04:00,
2013-01-14 15:09:00,14.7,4.1,30.50,NNE,20,2.0,2.0,62,0.00,,---,0.00,VWS V14.00,2013-01-14 22:09:00,
2013-01-14 15:14:00,14.1,3.1,30.52,NNE,19,0.0,1.0,61,0.00,,---,0.00,VWS V14.00,2013-01-14 22:14:00,
2013-01-14 15:19:00,14.3,3.7,30.52,NNE,20,0.0,1.0,62,0.00,,---,0.00,VWS V14.00,2013-01-14 22:19:00,
2013-01-14 15:24:00,14.3,3.7,30.52,NNE,19,0.0,4.0,62,0.00,,---,0.00,VWS V14.00,2013-01-14 22:24:00,
2013-01-14 15:29:00,14.3,3.7,30.52,NNE,18,0.0,2.0,62,0.00,,---,0.00,VWS V14.00,2013-01-14 22:29:00,
2013-01-14 15:34:00,14.2,3.6,30.53,NNE,15,1.0,3.0,62,0.00,,---,0.00,VWS V14.00,2013-01-14 22:34:00,
2013-01-14 15:39:00,13.7,3.1,30.53,NNE,15,0.0,1.0,62,0.00,,---,0.00,VWS V14.00,2013-01-14 22:39:00,
2013-01-14 15:44:00,13.6,3.4,30.53,NNW,336,3.0,3.0,63,0.00,,---,0.00,VWS V14.00,2013-01-14 22:44:00,
2013-01-14 15:49:00,13.6,3.0,30.53,NNW,336,0.0,3.0,62,0.00,,---,0.00,VWS V14.00,2013-01-14 22:49:00,
2013-01-14 15:54:00,13.3,2.7,30.53,NNW,336,0.0,0.0,62,0.00,,---,0.00,VWS V14.00,2013-01-14 22:54:00,
2013-01-14 15:59:00,13.0,2.4,30.54,NNW,336,0.0,0.0,62,0.00,,---,0.00,VWS V14.00,2013-01-14 22:59:00,
2013-01-14 16:04:00,12.9,2.7,30.54,NNW,336,0.0,0.0,63,0.00,,---,0.00,VWS V14.00,2013-01-14 23:04:00,
2013-01-14 16:09:00,12.9,2.7,30.54,NNW,336,3.0,4.0,63,0.00,,---,0.00,VWS V14.00,2013-01-14 23:09:00,
2013-01-14 16:14:00,12.8,2.6,30.54,NNW,336,0.0,1.0,63,0.00,,---,0.00,VWS V14.00,2013-01-14 23:14:00,
2013-01-14 16:19:00,12.6,2.1,30.54,NNW,336,0.0,1.0,62,0.00,,---,0.00,VWS V14.00,2013-01-14 23:19:00,
2013-01-14 16:24:00,12.5,2.0,30.54,NNW,336,0.0,0.0,62,0.00,,---,0.00,VWS V14.00,2013-01-14 23:24:00,
2013-01-14 16:29:00,12.2,2.0,30.54,NNW,336,0.0,1.0,63,0.00,,---,0.00,VWS V14.00,2013-01-14 23:29:00,
2013-01-14 16:34:00,12.1,1.9,30.55,NNW,336,0.0,1.0,63,0.00,,---,0.00,VWS V14.00,2013-01-14 23:34:00,
2013-01-14 16:39:00,11.9,1.7,30.55,NNW,336,0.0,0.0,63,0.00,,---,0.00,VWS V14.00,2013-01-14 23:39:00,
2013-01-14 16:44:00,11.8,1.6,30.55,NNW,336,0.0,0.0,63,0.00,,---,0.00,VWS V14.00,2013-01-14 23:44:00,
2013-01-14 16:49:00,11.7,1.5,30.55,NNW,336,0.0,0.0,63,0.00,,---,0.00,VWS V14.00,2013-01-14 23:49:00,
2013-01-14 16:54:00,11.7,1.5,30.56,NNW,336,0.0,0.0,63,0.00,,---,0.00,VWS V14.00,2013-01-14 23:54:00,
2013-01-14 16:59:00,11.6,1.5,30.56,NNW,336,0.0,0.0,63,0.00,,---,0.00,VWS V14.00,2013-01-14 23:59:00,
2013-01-14 17:04:00,11.6,1.8,30.56,NNW,336,0.0,0.0,64,0.00,,---,0.00,VWS V14.00,2013-01-15 00:04:00,
2013-01-14 17:09:00,11.4,1.6,30.56,NNW,336,0.0,0.0,64,0.00,,---,0.00,VWS V14.00,2013-01-15 00:09:00,
2013-01-14 17:14:00,11.3,1.5,30.56,NNW,336,0.0,0.0,64,0.00,,---,0.00,VWS V14.00,2013-01-15 00:14:00,
2013-01-14 17:19:00,11.1,1.3,30.56,NNW,336,0.0,0.0,64,0.00,,---,0.00,VWS V14.00,2013-01-15 00:19:00,
2013-01-14 17:24:00,10.9,1.5,30.57,NNW,336,0.0,0.0,65,0.00,,---,0.00,VWS V14.00,2013-01-15 00:24:00,
2013-01-14 17:29:00,10.8,1.4,30.57,NNW,336,0.0,0.0,65,0.00,,---,0.00,VWS V14.00,2013-01-15 00:29:00,
2013-01-14 17:34:00,10.8,1.7,30.57,NNW,336,0.0,0.0,66,0.00,,---,0.00,VWS V14.00,2013-01-15 00:34:00,
2013-01-14 17:39:00,10.7,1.6,30.57,NNW,336,0.0,0.0,66,0.00,,---,0.00,VWS V14.00,2013-01-15 00:39:00,
2013-01-14 17:44:00,10.6,1.5,30.57,NNW,336,0.0,0.0,66,0.00,,---,0.00,VWS V14.00,2013-01-15 00:44:00,
2013-01-14 17:49:00,10.5,1.7,30.57,NNW,336,0.0,0.0,67,0.00,,---,0.00,VWS V14.00,2013-01-15 00:49:00,
2013-01-14 17:54:00,10.5,1.7,30.57,NNW,336,0.0,0.0,67,0.00,,---,0.00,VWS V14.00,2013-01-15 00:54:00,
2013-01-14 17:59:00,10.4,1.6,30.58,NNW,336,0.0,0.0,67,0.00,,---,0.00,VWS V14.00,2013-01-15 00:59:00,
2013-01-14 18:04:00,10.2,1.4,30.58,NNW,336,0.0,0.0,67,0.00,,---,0.00,VWS V14.00,2013-01-15 01:04:00,
2013-01-14 18:09:00,10.1,1.3,30.58,NNW,336,0.0,0.0,67,0.00,,---,0.00,VWS V14.00,2013-01-15 01:09:00,
2013-01-14 18:14:00,10.1,1.3,30.58,NNW,336,0.0,0.0,67,0.00,,---,0.00,VWS V14.00,2013-01-15 01:14:00,
2013-01-14 18:19:00,9.9,1.1,30.58,NNW,336,0.0,0.0,67,0.00,,---,0.00,VWS V14.00,2013-01-15 01:19:00,
2013-01-14 18:24:00,9.9,1.1,30.58,NNW,336,0.0,0.0,67,0.00,,---,0.00,VWS V14.00,2013-01-15 01:24:00,
2013-01-14 18:29:00,9.8,1.0,30.58,NNW,336,0.0,0.0,67,0.00,,---,0.00,VWS V14.00,2013-01-15 01:29:00,
2013-01-14 18:34:00,9.6,0.9,30.58,NNW,336,0.0,0.0,67,0.00,,---,0.00,VWS V14.00,2013-01-15 01:34:00,
2013-01-14 18:39:00,9.4,0.7,30.58,NNW,336,0.0,0.0,67,0.00,,---,0.00,VWS V14.00,2013-01-15 01:39:00,
2013-01-14 18:44:00,9.2,0.5,30.58,NNW,336,0.0,0.0,67,0.00,,---,0.00,VWS V14.00,2013-01-15 01:44:00,
2013-01-14 18:49:00,9.1,0.4,30.58,NNW,336,0.0,0.0,67,0.00,,---,0.00,VWS V14.00,2013-01-15 01:49:00,
2013-01-14 18:54:00,8.9,0.2,30.58,NNW,336,0.0,0.0,67,0.00,,---,0.00,VWS V14.00,2013-01-15 01:54:00,
2013-01-14 18:59:00,8.8,0.4,30.58,NNW,336,0.0,0.0,68,0.00,,---,0.00,VWS V14.00,2013-01-15 01:59:00,
2013-01-14 19:04:00,8.7,0.3,30.58,NNW,336,0.0,0.0,68,0.00,,---,0.00,VWS V14.00,2013-01-15 02:04:00,
2013-01-14 19:09:00,8.5,0.1,30.58,NNW,336,0.0,0.0,68,0.00,,---,0.00,VWS V14.00,2013-01-15 02:09:00,
2013-01-14 19:14:00,8.4,0.0,30.58,NNW,336,0.0,0.0,68,0.00,,---,0.00,VWS V14.00,2013-01-15 02:14:00,
2013-01-14 19:19:00,8.2,-0.2,30.58,NNW,336,0.0,0.0,68,0.00,,---,0.00,VWS V14.00,2013-01-15 02:19:00,
2013-01-14 19:24:00,8.1,-0.3,30.57,NNW,336,0.0,0.0,68,0.00,,---,0.00,VWS V14.00,2013-01-15 02:24:00,
2013-01-14 19:29:00,7.9,-0.4,30.57,NNW,336,0.0,0.0,68,0.00,,---,0.00,VWS V14.00,2013-01-15 02:29:00,
2013-01-14 19:34:00,7.7,-0.3,30.57,NNW,336,0.0,0.0,69,0.00,,---,0.00,VWS V14.00,2013-01-15 02:34:00,
2013-01-14 19:39:00,7.5,-0.5,30.56,NNW,336,0.0,0.0,69,0.00,,---,0.00,VWS V14.00,2013-01-15 02:39:00,
2013-01-14 19:44:00,7.4,-0.3,30.58,NNW,336,0.0,0.0,70,0.00,,---,0.00,VWS V14.00,2013-01-15 02:44:00,
2013-01-14 19:49:00,7.3,-0.1,30.58,NNW,336,0.0,0.0,71,0.00,,---,0.00,VWS V14.00,2013-01-15 02:49:00,
2013-01-14 19:54:00,7.2,-0.2,30.58,NNW,336,0.0,0.0,71,0.00,,---,0.00,VWS V14.00,2013-01-15 02:54:00,
2013-01-14 19:59:00,7.1,-0.3,30.58,NNW,336,0.0,0.0,71,0.00,,---,0.00,VWS V14.00,2013-01-15 02:59:00,
2013-01-14 20:04:00,7.0,-0.4,30.55,NNW,336,0.0,0.0,71,0.00,,---,0.00,VWS V14.00,2013-01-15 03:04:00,
2013-01-14 20:09:00,6.9,-0.5,30.55,NNW,336,0.0,0.0,71,0.00,,---,0.00,VWS V14.00,2013-01-15 03:09:00,
2013-01-14 20:14:00,6.8,-0.6,30.55,NNW,336,0.0,0.0,71,0.00,,---,0.00,VWS V14.00,2013-01-15 03:14:00,
2013-01-14 20:19:00,6.7,-0.7,30.55,NNW,336,0.0,0.0,71,0.00,,---,0.00,VWS V14.00,2013-01-15 03:19:00,
2013-01-14 20:24:00,6.5,-0.9,30.54,NNW,336,0.0,0.0,71,0.00,,---,0.00,VWS V14.00,2013-01-15 03:24:00,
2013-01-14 20:30:00,6.4,-1.0,30.56,NNW,336,0.0,0.0,71,0.00,,---,0.00,VWS V14.00,2013-01-15 03:30:00,
2013-01-14 20:35:00,6.3,-1.1,30.56,NNW,336,0.0,0.0,71,0.00,,---,0.00,VWS V14.00,2013-01-15 03:35:00,
2013-01-14 20:40:00,6.2,-0.9,30.56,NNW,336,0.0,0.0,72,0.00,,---,0.00,VWS V14.00,2013-01-15 03:40:00,
2013-01-14 20:45:00,6.1,-1.0,30.56,NNW,336,0.0,0.0,72,0.00,,---,0.00,VWS V14.00,2013-01-15 03:45:00,
2013-01-14 20:50:00,6.0,-1.1,30.56,NNW,336,0.0,0.0,72,0.00,,---,0.00,VWS V14.00,2013-01-15 03:50:00,
2013-01-14 20:55:00,5.8,-1.3,30.56,NNW,336,0.0,0.0,72,0.00,,---,0.00,VWS V14.00,2013-01-15 03:55:00,
2013-01-14 21:00:00,5.7,-1.4,30.55,NNW,336,0.0,0.0,72,0.00,,---,0.00,VWS V14.00,2013-01-15 04:00:00,
2013-01-14 21:06:00,5.6,-1.5,30.55,NNW,336,0.0,0.0,72,0.00,,---,0.00,VWS V14.00,2013-01-15 04:06:00,
2013-01-14 21:11:00,5.5,-1.5,30.55,NNW,336,0.0,0.0,72,0.00,,---,0.00,VWS V14.00,2013-01-15 04:11:00,
2013-01-14 21:16:00,5.4,-1.6,30.55,NNW,336,0.0,0.0,72,0.00,,---,0.00,VWS V14.00,2013-01-15 04:16:00,
2013-01-14 21:21:00,5.3,-1.8,30.55,NNW,336,0.0,0.0,72,0.00,,---,0.00,VWS V14.00,2013-01-15 04:21:00,
2013-01-14 21:26:00,5.2,-1.5,30.54,NNW,336,0.0,0.0,73,0.00,,---,0.00,VWS V14.00,2013-01-15 04:26:00,
2013-01-14 21:31:00,5.1,-1.6,30.54,NNW,336,0.0,0.0,73,0.00,,---,0.00,VWS V14.00,2013-01-15 04:31:00,
2013-01-14 21:36:00,5.1,-1.6,30.55,NNW,336,0.0,0.0,73,0.00,,---,0.00,VWS V14.00,2013-01-15 04:36:00,
2013-01-14 21:41:00,5.1,-1.4,30.54,NNW,336,0.0,0.0,74,0.00,,---,0.00,VWS V14.00,2013-01-15 04:41:00,
2013-01-14 21:46:00,5.1,-1.4,30.54,NNW,336,0.0,0.0,74,0.00,,---,0.00,VWS V14.00,2013-01-15 04:46:00,
2013-01-14 21:51:00,5.0,-1.5,30.54,NNW,336,0.0,0.0,74,0.00,,---,0.00,VWS V14.00,2013-01-15 04:51:00,
2013-01-14 21:56:00,4.9,-1.6,30.54,NNW,336,0.0,0.0,74,0.00,,---,0.00,VWS V14.00,2013-01-15 04:56:00,
2013-01-14 22:00:00,4.9,-1.6,30.54,NNW,336,0.0,0.0,74,0.00,,---,0.00,VWS V14.00,2013-01-15 05:00:00,
2013-01-14 22:02:00,4.8,-1.6,30.53,NNW,336,0.0,0.0,74,0.00,,---,0.00,VWS V14.00,2013-01-15 05:02:00,
2013-01-14 22:04:00,4.8,-1.6,30.53,NNW,336,0.0,0.0,74,0.00,,---,0.00,VWS V14.00,2013-01-15 05:04:00,
2013-01-14 22:06:00,4.7,-1.5,30.53,NNW,336,0.0,0.0,75,0.00,,---,0.00,VWS V14.00,2013-01-15 05:06:00,
2013-01-14 22:11:00,4.7,-1.5,30.52,NNW,336,0.0,0.0,75,0.00,,---,0.00,VWS V14.00,2013-01-15 05:11:00,
2013-01-14 22:16:00,4.6,-1.6,30.53,NNW,336,0.0,0.0,75,0.00,,---,0.00,VWS V14.00,2013-01-15 05:16:00,
2013-01-14 22:21:00,4.5,-1.7,30.52,NNW,336,0.0,0.0,75,0.00,,---,0.00,VWS V14.00,2013-01-15 05:21:00,
2013-01-14 22:26:00,4.4,-1.8,30.54,NNW,336,0.0,0.0,75,0.00,,---,0.00,VWS V14.00,2013-01-15 05:26:00,
2013-01-14 22:31:00,4.4,-1.8,30.54,NNW,336,0.0,0.0,75,0.00,,---,0.00,VWS V14.00,2013-01-15 05:31:00,
2013-01-14 22:36:00,4.2,-2.0,30.54,NNW,336,0.0,0.0,75,0.00,,---,0.00,VWS V14.00,2013-01-15 05:36:00,
2013-01-14 22:41:00,4.1,-2.0,30.54,NNW,336,0.0,0.0,75,0.00,,---,0.00,VWS V14.00,2013-01-15 05:41:00,
2013-01-14 22:46:00,4.0,-2.2,30.54,NNW,336,0.0,0.0,75,0.00,,---,0.00,VWS V14.00,2013-01-15 05:46:00,
2013-01-14 22:51:00,3.9,-2.2,30.54,NNW,336,0.0,0.0,75,0.00,,---,0.00,VWS V14.00,2013-01-15 05:51:00,
2013-01-14 22:56:00,3.8,-2.3,30.54,NNW,336,0.0,0.0,75,0.00,,---,0.00,VWS V14.00,2013-01-15 05:56:00,
2013-01-14 23:01:00,3.7,-2.4,30.54,NNW,336,0.0,0.0,75,0.00,,---,0.00,VWS V14.00,2013-01-15 06:01:00,
2013-01-14 23:06:00,3.6,-2.5,30.52,NNW,336,0.0,0.0,75,0.00,,---,0.00,VWS V14.00,2013-01-15 06:06:00,
2013-01-14 23:11:00,3.5,-2.6,30.53,NNW,336,0.0,0.0,75,0.00,,---,0.00,VWS V14.00,2013-01-15 06:11:00,
2013-01-14 23:16:00,3.3,-2.8,30.53,NNW,336,0.0,0.0,75,0.00,,---,0.00,VWS V14.00,2013-01-15 06:16:00,
2013-01-14 23:21:00,3.2,-2.9,30.53,NNW,336,0.0,0.0,75,0.00,,---,0.00,VWS V14.00,2013-01-15 06:21:00,
2013-01-14 23:26:00,3.1,-3.0,30.53,NNW,336,0.0,0.0,75,0.00,,---,0.00,VWS V14.00,2013-01-15 06:26:00,
2013-01-14 23:31:00,2.9,-3.2,30.53,NNW,336,0.0,0.0,75,0.00,,---,0.00,VWS V14.00,2013-01-15 06:31:00,
2013-01-14 23:37:00,2.8,-3.3,30.52,NNW,336,0.0,0.0,75,0.00,,---,0.00,VWS V14.00,2013-01-15 06:37:00,
2013-01-14 23:42:00,2.7,-3.4,30.52,NNW,336,0.0,0.0,75,0.00,,---,0.00,VWS V14.00,2013-01-15 06:42:00,
2013-01-14 23:47:00,2.6,-3.5,30.52,NNW,336,0.0,0.0,75,0.00,,---,0.00,VWS V14.00,2013-01-15 06:47:00,
2013-01-14 23:53:00,2.4,-3.7,30.54,NNW,336,0.0,0.0,75,0.00,,---,0.00,VWS V14.00,2013-01-15 06:53:00,
2013-01-14 23:59:00,2.3,-3.8,30.54,NNW,336,0.0,0.0,75,0.00,,---,0.00,VWS V14.00,2013-01-15 06:59:00,